createdAt,value
2024-03-02T00:00:43.167Z,79793.09
2024-03-02T00:02:16.789Z,79785.19
2024-03-02T00:03:50.548Z,79789.13
2024-03-02T00:05:24.440Z,79783.19
2024-03-02T00:07:01.110Z,79832.69
2024-03-02T00:08:34.760Z,79773.31
2024-03-02T00:10:14.449Z,79739.66
2024-03-02T00:11:48.552Z,79757.47
2024-03-02T00:13:26.048Z,79741.66
2024-03-02T00:14:59.457Z,79759.47
2024-03-02T00:16:33.629Z,79769.34
2024-03-02T00:18:07.594Z,79777.28
2024-03-02T00:19:44.240Z,79749.56
2024-03-02T00:21:22.198Z,79840.59
2024-03-02T00:23:07.082Z,79721.84
2024-03-02T00:24:43.985Z,79729.78
2024-03-02T00:26:18.151Z,79761.44
2024-03-02T00:27:51.967Z,79757.47
2024-03-02T00:29:26.692Z,79755.50
2024-03-02T00:31:09.074Z,79763.41
2024-03-02T00:32:45.128Z,79767.38
2024-03-02T00:34:19.411Z,79771.31
2024-03-02T00:35:55.724Z,79791.13
2024-03-02T00:37:30.420Z,79799.03
2024-03-02T00:39:05.648Z,79806.94
2024-03-02T00:40:39.235Z,79785.19
2024-03-02T00:42:16.435Z,79797.06
2024-03-02T00:44:02.202Z,79779.25
2024-03-02T00:45:36.257Z,79828.72
2024-03-02T00:47:12.797Z,79820.81
2024-03-02T00:48:59.732Z,79812.88
2024-03-02T00:50:34.278Z,79844.56
2024-03-02T00:52:08.625Z,79854.44
2024-03-02T00:53:44.257Z,79864.34
2024-03-02T00:55:18.192Z,79897.97
2024-03-02T00:56:52.688Z,79876.22
2024-03-02T00:58:28.925Z,79896.00
2024-03-02T01:00:03.110Z,79894.03
2024-03-02T01:01:37.412Z,79911.84
2024-03-02T01:03:12.221Z,79935.59
2024-03-02T01:04:45.975Z,80026.63
2024-03-02T01:06:20.205Z,79943.50
2024-03-02T01:07:53.761Z,79937.56
2024-03-02T01:09:27.412Z,79947.47
2024-03-02T01:11:02.261Z,79943.50
2024-03-02T01:12:38.825Z,79953.41
2024-03-02T01:14:13.008Z,79947.47
2024-03-02T01:15:46.520Z,79939.53
2024-03-02T01:17:20.351Z,79923.72
2024-03-02T01:18:57.099Z,79943.50
2024-03-02T01:20:31.292Z,79939.53
2024-03-02T01:22:05.207Z,79935.59
2024-03-02T01:23:41.087Z,79935.59
2024-03-02T01:25:15.552Z,79929.66
2024-03-02T01:26:51.599Z,79931.63
2024-03-02T01:28:24.756Z,79949.44
2024-03-02T01:30:01.605Z,79967.25
2024-03-02T01:31:35.611Z,79929.66
2024-03-02T01:33:10.932Z,79937.56
2024-03-02T01:34:44.751Z,79911.84
2024-03-02T01:36:18.625Z,79935.59
2024-03-02T01:37:55.040Z,79935.59
2024-03-02T01:39:28.916Z,79909.84
2024-03-02T01:41:02.987Z,79923.72
2024-03-02T01:42:40.206Z,79888.09
2024-03-02T01:44:13.585Z,79907.88
2024-03-02T01:45:49.938Z,79897.97
2024-03-02T01:47:23.085Z,79929.66
2024-03-02T01:48:56.678Z,79947.47
2024-03-02T01:50:32.253Z,79939.53
2024-03-02T01:52:05.960Z,79933.59
2024-03-02T01:53:40.287Z,79939.53
2024-03-02T01:55:13.954Z,79935.59
2024-03-02T01:56:47.843Z,79973.19
2024-03-02T01:58:21.921Z,79969.22
2024-03-02T01:59:55.525Z,79987.03
2024-03-02T02:01:32.263Z,79967.25
2024-03-02T02:03:05.834Z,79947.47
2024-03-02T02:04:39.599Z,79915.78
2024-03-02T02:06:13.290Z,79907.88
2024-03-02T02:07:48.485Z,79937.56
2024-03-02T02:09:22.466Z,79951.41
2024-03-02T02:10:56.701Z,79953.41
2024-03-02T02:12:30.714Z,79975.16
2024-03-02T02:14:04.912Z,79925.69
2024-03-02T02:15:38.218Z,79943.50
2024-03-02T02:17:12.161Z,79975.16
2024-03-02T02:18:45.801Z,79888.09
2024-03-02T02:20:19.075Z,79886.13
2024-03-02T02:21:51.889Z,79868.31
2024-03-02T02:23:24.770Z,79874.25
2024-03-02T02:24:58.265Z,79880.19
2024-03-02T02:26:31.757Z,79856.44
2024-03-02T02:28:08.040Z,79947.47
2024-03-02T02:29:41.819Z,79955.38
2024-03-02T02:31:15.458Z,79919.75
2024-03-02T02:32:48.579Z,79842.56
2024-03-02T02:34:21.770Z,79876.22
2024-03-02T02:35:55.152Z,79842.56
2024-03-02T02:37:32.373Z,79872.25
2024-03-02T02:39:08.621Z,79894.03
2024-03-02T02:40:42.147Z,79911.84
2024-03-02T02:42:16.273Z,79888.09
2024-03-02T02:43:51.427Z,79888.09
2024-03-02T02:45:27.884Z,79886.13
2024-03-02T02:47:02.670Z,79884.13
2024-03-02T02:48:37.158Z,79896.00
2024-03-02T02:50:14.523Z,79880.19
2024-03-02T02:51:49.567Z,79897.97
2024-03-02T02:53:22.771Z,79925.69
2024-03-02T02:54:58.888Z,79901.94
2024-03-02T02:56:32.442Z,79923.72
2024-03-02T02:58:05.987Z,79919.75
2024-03-02T02:59:39.576Z,79963.28
2024-03-02T03:01:13.113Z,79949.44
2024-03-02T03:02:52.028Z,79931.63
2024-03-02T03:04:28.239Z,79959.34
2024-03-02T03:06:04.017Z,79983.09
2024-03-02T03:07:38.259Z,79975.16
2024-03-02T03:09:12.840Z,79985.06
2024-03-02T03:10:46.555Z,80024.66
2024-03-02T03:12:23.008Z,80002.88
2024-03-02T03:13:56.492Z,80004.84
2024-03-02T03:15:29.977Z,80002.88
2024-03-02T03:17:04.848Z,79992.97
2024-03-02T03:18:40.148Z,79994.97
2024-03-02T03:20:14.030Z,80012.78
2024-03-02T03:21:47.766Z,79971.22
2024-03-02T03:23:22.494Z,79975.16
2024-03-02T03:24:55.908Z,79979.13
2024-03-02T03:26:31.901Z,79977.16
2024-03-02T03:28:07.789Z,79979.13
2024-03-02T03:29:41.790Z,79953.41
2024-03-02T03:31:17.130Z,79967.25
2024-03-02T03:32:51.329Z,79963.28
2024-03-02T03:34:28.128Z,79967.25
2024-03-02T03:36:02.218Z,79953.41
2024-03-02T03:37:45.241Z,79943.50
2024-03-02T03:39:19.673Z,79989.03
2024-03-02T03:40:52.992Z,79911.84
2024-03-02T03:42:26.991Z,79896.00
2024-03-02T03:44:03.796Z,79884.13
2024-03-02T03:45:38.635Z,79899.97
2024-03-02T03:47:12.552Z,79896.00
2024-03-02T03:48:49.706Z,79901.94
2024-03-02T03:50:26.503Z,79864.34
2024-03-02T03:52:03.087Z,79874.25
2024-03-02T03:53:39.663Z,79915.78
2024-03-02T03:55:13.562Z,79860.38
2024-03-02T03:56:46.916Z,79820.81
2024-03-02T03:58:23.287Z,79826.75
2024-03-02T03:59:57.029Z,79844.56
2024-03-02T04:01:30.720Z,79824.75
2024-03-02T04:03:04.085Z,79781.22
2024-03-02T04:04:37.761Z,79769.34
2024-03-02T04:06:11.474Z,79767.38
2024-03-02T04:07:45.296Z,79759.47
2024-03-02T04:09:18.944Z,79739.66
2024-03-02T04:10:52.504Z,79731.75
2024-03-02T04:12:26.015Z,79729.78
2024-03-02T04:14:03.230Z,79725.81
2024-03-02T04:15:36.510Z,79785.19
2024-03-02T04:17:11.570Z,79711.97
2024-03-02T04:18:51.653Z,79678.31
2024-03-02T04:20:24.727Z,79622.91
2024-03-02T04:22:00.008Z,79571.47
2024-03-02T04:23:35.035Z,79508.13
2024-03-02T04:25:11.484Z,79563.53
2024-03-02T04:26:45.302Z,79436.91
2024-03-02T04:28:18.895Z,79470.53
2024-03-02T04:29:52.049Z,79367.63
2024-03-02T04:31:24.937Z,79296.41
2024-03-02T04:32:57.824Z,79258.81
2024-03-02T04:34:30.826Z,79286.50
2024-03-02T04:36:10.455Z,79181.63
2024-03-02T04:37:44.402Z,79066.88
2024-03-02T04:39:18.521Z,78977.84
2024-03-02T04:40:52.125Z,78969.94
2024-03-02T04:42:26.330Z,79005.53
2024-03-02T04:43:59.477Z,78983.78
2024-03-02T04:45:32.826Z,78946.19
2024-03-02T04:47:07.320Z,78888.81
2024-03-02T04:48:41.233Z,78821.53
2024-03-02T04:50:14.354Z,78795.81
2024-03-02T04:51:47.535Z,78744.38
2024-03-02T04:53:21.166Z,78665.25
2024-03-02T04:55:32.923Z,78586.09
2024-03-02T04:57:06.632Z,78510.94
2024-03-02T04:58:41.024Z,78471.34
2024-03-02T05:00:16.211Z,78508.94
2024-03-02T05:01:49.192Z,78400.13
2024-03-02T05:03:22.408Z,78360.56
2024-03-02T05:04:55.335Z,78261.66
2024-03-02T05:06:28.728Z,78301.22
2024-03-02T05:08:01.912Z,78321.00
2024-03-02T05:09:35.194Z,78273.53
2024-03-02T05:11:26.743Z,78412.00
2024-03-02T05:13:03.809Z,78562.38
2024-03-02T05:14:37.586Z,78508.94
2024-03-02T05:16:11.116Z,78562.38
2024-03-02T05:17:45.193Z,78679.09
2024-03-02T05:19:18.895Z,78580.16
2024-03-02T05:20:52.702Z,78510.94
2024-03-02T05:22:25.961Z,78524.78
2024-03-02T05:23:59.348Z,78601.94
2024-03-02T05:25:33.520Z,78586.09
2024-03-02T05:27:08.113Z,78566.31
2024-03-02T05:28:41.368Z,78582.16
2024-03-02T05:30:15.134Z,78603.91
2024-03-02T05:31:48.837Z,78681.06
2024-03-02T05:33:24.086Z,78669.19
2024-03-02T05:34:57.547Z,78669.19
2024-03-02T05:36:30.660Z,78754.28
2024-03-02T05:38:03.913Z,78736.47
2024-03-02T05:39:37.397Z,78776.03
2024-03-02T05:41:10.445Z,78540.59
2024-03-02T05:42:43.385Z,78376.41
2024-03-02T05:44:16.992Z,78289.34
2024-03-02T05:45:51.071Z,78388.28
2024-03-02T05:47:24.376Z,78350.69
2024-03-02T05:49:04.190Z,78285.41
2024-03-02T05:50:37.996Z,78245.84
2024-03-02T05:52:12.285Z,78194.41
2024-03-02T05:53:45.400Z,78303.22
2024-03-02T05:55:18.504Z,78299.25
2024-03-02T05:56:51.604Z,78410.03
2024-03-02T05:58:59.996Z,78417.94
2024-03-02T06:00:33.345Z,78354.63
2024-03-02T06:02:07.075Z,78408.06
2024-03-02T06:03:40.483Z,78315.06
2024-03-02T06:05:14.180Z,78257.72
2024-03-02T06:06:47.641Z,78115.28
2024-03-02T06:08:20.922Z,78206.28
2024-03-02T06:09:54.260Z,78050.00
2024-03-02T06:11:27.313Z,78055.94
2024-03-02T06:13:01.231Z,78008.47
2024-03-02T06:14:36.396Z,78075.72
2024-03-02T06:16:10.015Z,78036.16
2024-03-02T06:17:46.857Z,77990.66
2024-03-02T06:19:20.385Z,78042.09
2024-03-02T06:20:53.042Z,77875.94
2024-03-02T06:22:26.958Z,77941.22
2024-03-02T06:24:00.596Z,77933.28
2024-03-02T06:25:33.772Z,78020.31
2024-03-02T06:27:10.144Z,78170.66
2024-03-02T06:28:46.779Z,78142.97
2024-03-02T06:30:23.629Z,77933.28
2024-03-02T06:31:56.655Z,77838.34
2024-03-02T06:33:30.192Z,77838.34
2024-03-02T06:35:03.523Z,77790.88
2024-03-02T06:36:37.171Z,77856.16
2024-03-02T06:38:13.486Z,77856.16
2024-03-02T06:39:52.866Z,77826.47
2024-03-02T06:41:34.015Z,77899.66
2024-03-02T06:43:15.607Z,77992.63
2024-03-02T06:44:49.247Z,78008.47
2024-03-02T06:46:22.201Z,78204.28
2024-03-02T06:47:55.776Z,78328.94
2024-03-02T06:49:31.599Z,78321.00
2024-03-02T06:51:05.513Z,78340.78
2024-03-02T06:52:38.913Z,78410.03
2024-03-02T06:54:12.558Z,78299.25
2024-03-02T06:55:46.742Z,78526.75
2024-03-02T06:57:21.621Z,78443.66
2024-03-02T06:58:55.006Z,78483.22
2024-03-02T07:00:57.758Z,78378.38
2024-03-02T07:02:31.309Z,78431.78
2024-03-02T07:04:07.213Z,78374.44
2024-03-02T07:05:40.302Z,78295.28
2024-03-02T07:07:13.257Z,78279.47
2024-03-02T07:08:46.794Z,78419.94
2024-03-02T07:10:19.988Z,78435.75
2024-03-02T07:11:53.124Z,78364.53
2024-03-02T07:13:26.868Z,78463.44
2024-03-02T07:15:06.474Z,78402.13
2024-03-02T07:16:41.595Z,78475.31
2024-03-02T07:18:15.347Z,78388.28
2024-03-02T07:19:49.263Z,78425.84
2024-03-02T07:21:23.940Z,78506.97
2024-03-02T07:22:57.136Z,78510.94
2024-03-02T07:24:30.615Z,78615.78
2024-03-02T07:27:43.765Z,78499.06
2024-03-02T07:29:17.667Z,78506.97
2024-03-02T07:31:10.899Z,78495.09
2024-03-02T07:32:47.580Z,78495.09
2024-03-02T07:34:21.860Z,78439.72
2024-03-02T07:36:00.038Z,78408.06
2024-03-02T07:37:34.280Z,78467.41
2024-03-02T07:39:09.104Z,78463.44
2024-03-02T07:40:42.538Z,78534.66
2024-03-02T07:42:16.015Z,78518.84
2024-03-02T07:43:50.070Z,78503.00
2024-03-02T07:45:23.052Z,78566.31
2024-03-02T07:46:56.648Z,78542.59
2024-03-02T07:48:30.581Z,78538.63
2024-03-02T07:50:08.141Z,78439.72
2024-03-02T07:51:41.836Z,78396.19
2024-03-02T07:53:16.518Z,78415.97
2024-03-02T07:54:50.181Z,78398.16
2024-03-02T07:56:26.696Z,78520.81
2024-03-02T07:58:00.490Z,78558.41
2024-03-02T07:59:33.971Z,78655.34
2024-03-02T08:01:10.056Z,78706.78
2024-03-02T08:02:44.031Z,78688.97
2024-03-02T08:04:18.200Z,78617.75
2024-03-02T08:05:51.778Z,78491.16
2024-03-02T08:07:25.001Z,78556.44
2024-03-02T08:09:00.108Z,78633.59
2024-03-02T08:10:35.121Z,78542.59
2024-03-02T08:12:12.428Z,78489.16
2024-03-02T08:13:45.482Z,78392.22
2024-03-02T08:15:18.479Z,78301.22
2024-03-02T08:16:54.899Z,78336.84
2024-03-02T08:18:28.386Z,78348.72
2024-03-02T08:20:01.650Z,78350.69
2024-03-02T08:21:37.221Z,78400.13
2024-03-02T08:23:10.509Z,78374.44
2024-03-02T08:24:43.553Z,78342.78
2024-03-02T08:26:16.623Z,78321.00
2024-03-02T08:27:49.984Z,78281.44
2024-03-02T08:29:22.983Z,78299.25
2024-03-02T08:30:56.124Z,78257.72
2024-03-02T08:32:29.125Z,78305.19
2024-03-02T08:34:02.423Z,78319.03
2024-03-02T08:35:38.373Z,78400.13
2024-03-02T08:37:11.250Z,78528.72
2024-03-02T08:38:45.867Z,78437.72
2024-03-02T08:40:19.506Z,78348.72
2024-03-02T08:41:52.935Z,78354.63
2024-03-02T08:43:26.397Z,78261.66
2024-03-02T08:44:59.490Z,78245.84
2024-03-02T08:46:32.879Z,78277.50
2024-03-02T08:48:06.427Z,78245.84
2024-03-02T08:49:39.771Z,78233.97
2024-03-02T08:51:12.783Z,78174.63
2024-03-02T08:52:45.793Z,78249.78
2024-03-02T08:54:18.808Z,78241.88
2024-03-02T08:55:51.730Z,78230.00
2024-03-02T08:57:24.712Z,78186.50
2024-03-02T08:58:57.917Z,78178.56
2024-03-02T09:00:31.193Z,78137.03
2024-03-02T09:02:04.524Z,78115.28
2024-03-02T09:03:38.790Z,78186.50
2024-03-02T09:05:12.313Z,78154.84
2024-03-02T09:06:45.494Z,78323.00
2024-03-02T09:08:18.619Z,78380.34
2024-03-02T09:09:51.876Z,78324.97
2024-03-02T09:11:25.466Z,78287.38
2024-03-02T09:12:58.667Z,78419.94
2024-03-02T09:14:31.470Z,78305.19
2024-03-02T09:16:05.530Z,78326.94
2024-03-02T09:17:39.215Z,78506.97
2024-03-02T09:19:12.678Z,78475.31
2024-03-02T09:20:45.639Z,78388.28
2024-03-02T09:22:18.563Z,78332.88
2024-03-02T09:23:51.617Z,78287.38
2024-03-02T09:25:25.067Z,78210.22
2024-03-02T09:26:58.088Z,78281.44
2024-03-02T09:28:31.147Z,78218.16
2024-03-02T09:30:04.482Z,78301.22
2024-03-02T09:31:45.034Z,78255.72
2024-03-02T09:33:18.400Z,78344.75
2024-03-02T09:34:51.855Z,78326.94
2024-03-02T09:36:25.505Z,78222.09
2024-03-02T09:37:59.102Z,78194.41
2024-03-02T09:39:32.626Z,78194.41
2024-03-02T09:41:12.149Z,78178.56
2024-03-02T09:42:47.448Z,78119.22
2024-03-02T09:44:21.292Z,78162.75
2024-03-02T09:45:55.117Z,78107.38
2024-03-02T09:47:28.440Z,78119.22
2024-03-02T09:49:02.393Z,78170.66
2024-03-02T09:50:38.917Z,78115.28
2024-03-02T09:52:15.252Z,78139.03
2024-03-02T09:53:49.658Z,78121.22
2024-03-02T09:55:22.627Z,78200.34
2024-03-02T09:56:56.119Z,78186.50
2024-03-02T09:58:29.416Z,78158.78
2024-03-02T10:00:02.976Z,78295.28
2024-03-02T10:01:38.512Z,78285.41
2024-03-02T10:03:20.201Z,78233.97
2024-03-02T10:04:53.877Z,78214.19
2024-03-02T10:06:28.715Z,78228.03
2024-03-02T10:08:04.393Z,78182.53
2024-03-02T10:09:38.657Z,78139.03
2024-03-02T10:11:13.334Z,78093.53
2024-03-02T10:12:47.591Z,78095.50
2024-03-02T10:14:20.955Z,78146.94
2024-03-02T10:15:55.810Z,78071.75
2024-03-02T10:17:33.319Z,78032.19
2024-03-02T10:19:26.415Z,78107.38
2024-03-02T10:21:14.911Z,78036.16
2024-03-02T10:22:48.776Z,78075.72
2024-03-02T10:24:24.053Z,78034.19
2024-03-02T10:27:31.560Z,78069.78
2024-03-02T10:29:04.933Z,78057.91
2024-03-02T10:30:38.974Z,78010.44
2024-03-02T10:32:13.084Z,78044.06
2024-03-02T10:33:46.825Z,78036.16
2024-03-02T10:35:21.320Z,78091.53
2024-03-02T10:36:57.338Z,78083.63
2024-03-02T10:38:30.784Z,78109.34
2024-03-02T10:40:09.967Z,78067.81
2024-03-02T10:41:43.545Z,78079.66
2024-03-02T10:43:18.011Z,78075.72
2024-03-02T10:44:52.733Z,78093.53
2024-03-02T10:46:33.119Z,78176.59
2024-03-02T10:48:08.695Z,78109.34
2024-03-02T10:49:46.105Z,78107.38
2024-03-02T10:51:19.307Z,78103.41
2024-03-02T10:52:56.210Z,78065.81
2024-03-02T10:54:38.580Z,78103.41
2024-03-02T10:56:17.863Z,78075.72
2024-03-02T10:57:56.050Z,78014.41
2024-03-02T10:59:35.795Z,78059.88
2024-03-02T11:01:14.335Z,78061.88
2024-03-02T11:03:04.221Z,78044.06
2024-03-02T11:04:39.043Z,78040.09
2024-03-02T11:06:15.078Z,78030.22
2024-03-02T11:07:49.182Z,78089.56
2024-03-02T11:09:27.709Z,78073.75
2024-03-02T11:11:13.998Z,78034.19
2024-03-02T11:13:10.167Z,78067.81
2024-03-02T11:14:47.372Z,78075.72
2024-03-02T11:16:36.766Z,78051.97
2024-03-02T11:18:10.631Z,78048.03
2024-03-02T11:19:48.047Z,78087.59
2024-03-02T11:21:21.971Z,78091.53
2024-03-02T11:22:59.105Z,78069.78
2024-03-02T11:24:39.153Z,78146.94
2024-03-02T11:26:22.967Z,78099.44
2024-03-02T11:27:56.791Z,78142.97
2024-03-02T11:29:41.861Z,78091.53
2024-03-02T11:31:19.661Z,78093.53
2024-03-02T11:33:13.302Z,78087.59
2024-03-02T11:34:52.429Z,78162.75
2024-03-02T11:36:26.635Z,78257.72
2024-03-02T11:38:03.678Z,78180.56
2024-03-02T11:39:40.443Z,78224.06
2024-03-02T11:41:18.946Z,78220.13
2024-03-02T11:42:52.882Z,78194.41
2024-03-02T11:44:29.874Z,78194.41
2024-03-02T11:46:11.359Z,78162.75
2024-03-02T11:47:52.094Z,78156.81
2024-03-02T11:49:51.177Z,78190.44
2024-03-02T11:51:25.367Z,78228.03
2024-03-02T11:53:00.945Z,78196.38
2024-03-02T11:54:38.364Z,78237.94
2024-03-02T11:56:15.064Z,78309.13
2024-03-02T11:57:49.779Z,78275.50
2024-03-02T11:59:24.105Z,78253.75
2024-03-02T12:00:58.654Z,78263.63
2024-03-02T12:02:35.336Z,78293.31
2024-03-02T12:04:09.469Z,78253.75
2024-03-02T12:05:44.767Z,78243.84
2024-03-02T12:07:24.147Z,78249.78
2024-03-02T12:08:58.290Z,78275.50
2024-03-02T12:10:32.006Z,78241.88
2024-03-02T12:12:06.905Z,78255.72
2024-03-02T12:13:40.382Z,78257.72
2024-03-02T12:15:14.170Z,78321.00
2024-03-02T12:16:51.327Z,78297.28
2024-03-02T12:18:25.173Z,78309.13
2024-03-02T12:19:59.320Z,78326.94
2024-03-02T12:21:36.250Z,78324.97
2024-03-02T12:23:15.096Z,78323.00
2024-03-02T12:24:49.036Z,78354.63
2024-03-02T12:26:23.796Z,78366.50
2024-03-02T12:28:03.586Z,78348.72
2024-03-02T12:29:38.492Z,78358.59
2024-03-02T12:31:14.698Z,78437.72
2024-03-02T12:32:52.538Z,78384.31
2024-03-02T12:34:30.057Z,78425.84
2024-03-02T12:36:06.942Z,78429.81
2024-03-02T12:37:47.492Z,78392.22
2024-03-02T12:39:24.563Z,78390.25
2024-03-02T12:40:57.758Z,78431.78
2024-03-02T12:42:32.820Z,78449.59
2024-03-02T12:44:09.478Z,78510.94
2024-03-02T12:45:43.601Z,78590.06
2024-03-02T12:47:16.990Z,78597.97
2024-03-02T12:48:50.405Z,78546.53
2024-03-02T12:50:26.127Z,78538.63
2024-03-02T12:51:59.767Z,78534.66
2024-03-02T12:53:34.343Z,78501.03
2024-03-02T12:55:08.508Z,78613.81
2024-03-02T12:56:47.078Z,78536.66
2024-03-02T12:58:24.430Z,78501.03
2024-03-02T13:00:14.743Z,78499.06
2024-03-02T13:02:01.157Z,78534.66
2024-03-02T13:03:38.112Z,78538.63
2024-03-02T13:05:14.894Z,78558.41
2024-03-02T13:06:48.615Z,78641.50
2024-03-02T13:08:22.684Z,78594.03
2024-03-02T13:09:57.768Z,78588.09
2024-03-02T13:11:31.135Z,78603.91
2024-03-02T13:13:04.566Z,78641.50
2024-03-02T13:14:38.110Z,78649.41
2024-03-02T13:16:11.819Z,78609.84
2024-03-02T13:17:47.889Z,78653.38
2024-03-02T13:19:20.758Z,78685.03
2024-03-02T13:20:53.966Z,78665.25
2024-03-02T13:22:27.987Z,78673.16
2024-03-02T13:24:01.807Z,78669.19
2024-03-02T13:25:35.492Z,78704.81
2024-03-02T13:27:09.184Z,78718.66
2024-03-02T13:28:42.625Z,78736.47
2024-03-02T13:30:15.848Z,78736.47
2024-03-02T13:31:50.547Z,78756.25
2024-03-02T13:33:24.151Z,78776.03
2024-03-02T13:34:57.758Z,78752.28
2024-03-02T13:36:31.468Z,78776.03
2024-03-02T13:38:05.548Z,78776.03
2024-03-02T13:39:44.062Z,78803.72
2024-03-02T13:41:17.876Z,78799.78
2024-03-02T13:42:53.328Z,78789.88
2024-03-02T13:44:26.552Z,78795.81
2024-03-02T13:46:02.201Z,78825.50
2024-03-02T13:47:35.717Z,78827.47
2024-03-02T13:49:09.418Z,78882.88
2024-03-02T13:50:42.716Z,78839.34
2024-03-02T13:52:18.792Z,78839.34
2024-03-02T13:53:52.310Z,78869.03
2024-03-02T13:55:25.472Z,78914.53
2024-03-02T13:57:01.815Z,78914.53
2024-03-02T13:58:36.738Z,78993.66
2024-03-02T14:00:12.190Z,78934.31
2024-03-02T14:01:47.194Z,79031.25
2024-03-02T14:03:23.838Z,78946.19
2024-03-02T14:04:57.928Z,78993.66
2024-03-02T14:06:31.071Z,78965.97
2024-03-02T14:08:04.401Z,78981.81
2024-03-02T14:09:38.294Z,78965.97
2024-03-02T14:11:16.407Z,78950.16
2024-03-02T14:12:50.141Z,78975.88
2024-03-02T14:14:27.476Z,79025.31
2024-03-02T14:16:01.987Z,79009.50
2024-03-02T14:17:45.322Z,79005.53
2024-03-02T14:19:23.174Z,79011.47
2024-03-02T14:21:02.468Z,79009.50
2024-03-02T14:22:39.371Z,79017.41
2024-03-02T14:24:13.140Z,79082.72
2024-03-02T14:25:50.397Z,79057.00
2024-03-02T14:27:32.519Z,79080.72
2024-03-02T14:29:26.408Z,79057.00
2024-03-02T14:31:05.019Z,79074.78
2024-03-02T14:32:39.213Z,79104.47
2024-03-02T14:34:12.899Z,79136.13
2024-03-02T14:35:50.866Z,79179.66
2024-03-02T14:37:24.792Z,79151.97
2024-03-02T14:39:02.194Z,79140.09
2024-03-02T14:40:38.686Z,79128.22
2024-03-02T14:42:12.312Z,79118.31
2024-03-02T14:43:45.771Z,79110.41
2024-03-02T14:45:21.968Z,79084.69
2024-03-02T14:46:55.478Z,79122.28
2024-03-02T14:48:28.834Z,79134.16
2024-03-02T14:50:07.882Z,79120.31
2024-03-02T14:51:41.044Z,79132.19
2024-03-02T14:53:14.304Z,79116.34
2024-03-02T14:54:48.846Z,79132.19
2024-03-02T14:56:24.725Z,79167.78
2024-03-02T14:57:58.716Z,79157.91
2024-03-02T14:59:32.914Z,79175.72
2024-03-02T15:01:07.636Z,79171.75
2024-03-02T15:02:41.806Z,79187.56
2024-03-02T15:04:16.640Z,79233.09
2024-03-02T15:05:53.149Z,79256.84
2024-03-02T15:07:26.164Z,79250.91
2024-03-02T15:08:59.128Z,79278.59
2024-03-02T15:10:32.685Z,79262.78
2024-03-02T15:12:06.340Z,79290.47
2024-03-02T15:13:39.583Z,79268.72
2024-03-02T15:15:13.058Z,79278.59
2024-03-02T15:16:45.968Z,79239.03
2024-03-02T15:18:20.237Z,79229.13
2024-03-02T15:19:53.167Z,79211.31
2024-03-02T15:21:26.477Z,79242.97
2024-03-02T15:22:59.280Z,79242.97
2024-03-02T15:24:32.647Z,79258.81
2024-03-02T15:26:06.286Z,79223.19
2024-03-02T15:27:39.793Z,79239.03
2024-03-02T15:29:13.022Z,79330.03
2024-03-02T15:30:46.352Z,79262.78
2024-03-02T15:32:20.030Z,79276.63
2024-03-02T15:33:55.127Z,79302.34
2024-03-02T15:35:28.112Z,79294.44
2024-03-02T15:37:02.117Z,79278.59
2024-03-02T15:38:42.506Z,79296.41
2024-03-02T15:40:16.447Z,79276.63
2024-03-02T15:41:50.363Z,79290.47
2024-03-02T15:43:27.342Z,79268.72
2024-03-02T15:45:03.626Z,79330.03
2024-03-02T15:46:39.906Z,79248.91
2024-03-02T15:48:17.342Z,79286.50
2024-03-02T15:50:04.624Z,79330.03
2024-03-02T15:51:41.930Z,79337.97
2024-03-02T15:53:18.466Z,79330.03
2024-03-02T15:54:51.886Z,79351.81
2024-03-02T15:56:37.274Z,79381.50
2024-03-02T15:58:10.327Z,79389.41
2024-03-02T15:59:43.854Z,79403.25
2024-03-02T16:01:21.665Z,79555.63
2024-03-02T16:02:55.484Z,79401.28
2024-03-02T16:04:28.958Z,79421.06
2024-03-02T16:06:02.680Z,79417.13
2024-03-02T16:07:36.960Z,79413.16
2024-03-02T16:09:11.789Z,79428.97
2024-03-02T16:10:44.568Z,79434.91
2024-03-02T16:12:17.347Z,79421.06
2024-03-02T16:13:51.267Z,79389.41
2024-03-02T16:15:24.988Z,79407.22
2024-03-02T16:17:00.478Z,79413.16
2024-03-02T16:18:35.653Z,79444.81
2024-03-02T16:20:09.324Z,79438.88
2024-03-02T16:21:42.335Z,79452.72
2024-03-02T16:23:15.698Z,79434.91
2024-03-02T16:24:49.462Z,79442.84
2024-03-02T16:26:22.914Z,79432.94
2024-03-02T16:27:56.225Z,79403.25
2024-03-02T16:29:29.679Z,79397.31
2024-03-02T16:31:03.231Z,79440.84
2024-03-02T16:32:36.774Z,79375.56
2024-03-02T16:34:09.872Z,79393.38
2024-03-02T16:35:42.920Z,79391.38
2024-03-02T16:37:15.926Z,79448.78
2024-03-02T16:38:49.094Z,79488.34
2024-03-02T18:40:23.429Z,79787.16
2024-03-02T18:41:57.160Z,79773.31
2024-03-02T18:43:30.918Z,79767.38
2024-03-02T18:45:07.077Z,79759.47
2024-03-02T18:46:40.925Z,79709.97
2024-03-02T18:48:14.891Z,79729.78
2024-03-02T18:49:48.870Z,79702.06
2024-03-02T18:51:26.797Z,79702.06
2024-03-02T18:53:00.420Z,79706.03
2024-03-02T18:54:35.829Z,79793.09
2024-03-02T18:56:09.238Z,79745.59
2024-03-02T18:57:42.470Z,79721.84
2024-03-02T18:59:16.171Z,79749.56
2024-03-02T19:00:50.042Z,79729.78
2024-03-02T19:02:23.604Z,79741.66
2024-03-02T19:03:56.991Z,79700.09
2024-03-02T19:05:30.099Z,79706.03
2024-03-02T19:07:03.668Z,79717.91
2024-03-02T19:08:37.083Z,79700.09
2024-03-02T19:10:12.647Z,79698.09
2024-03-02T19:11:47.134Z,79704.03
2024-03-02T19:13:21.628Z,79682.28
2024-03-02T19:14:55.193Z,79696.13
2024-03-02T19:16:29.485Z,79761.44
2024-03-02T19:18:03.498Z,79702.06
2024-03-02T19:19:37.671Z,79713.94
2024-03-02T19:21:12.385Z,79694.16
2024-03-02T19:22:46.239Z,79702.06
2024-03-02T19:24:19.543Z,79708.00
2024-03-02T19:25:53.124Z,79698.09
2024-03-02T19:27:26.739Z,79696.13
2024-03-02T19:29:00.617Z,79694.16
2024-03-02T19:30:34.297Z,79806.94
2024-03-02T19:32:11.944Z,79747.59
2024-03-02T19:33:49.901Z,79795.06
2024-03-02T19:35:23.785Z,79757.47
2024-03-02T19:37:01.362Z,79832.69
2024-03-02T19:38:38.059Z,79763.41
2024-03-02T19:40:12.234Z,79757.47
2024-03-02T19:41:45.887Z,79753.53
2024-03-02T19:43:22.466Z,79767.38
2024-03-02T19:44:56.667Z,79795.06
2024-03-02T19:46:30.947Z,79717.91
2024-03-02T19:48:07.819Z,79801.00
2024-03-02T19:49:41.462Z,79733.72
2024-03-02T19:51:14.418Z,79757.47
2024-03-02T19:52:51.253Z,79751.53
2024-03-02T19:54:24.850Z,79721.84
2024-03-02T19:55:59.121Z,79725.81
2024-03-02T19:57:37.098Z,79761.44
2024-03-02T19:59:13.994Z,79733.72
2024-03-02T20:00:48.043Z,79739.66
2024-03-02T20:02:23.752Z,79753.53
2024-03-02T20:03:57.215Z,79812.88
2024-03-02T20:05:33.739Z,79761.44
2024-03-02T20:07:07.030Z,79719.88
2024-03-02T20:08:39.956Z,79721.84
2024-03-02T20:10:14.732Z,79700.09
2024-03-02T20:11:49.484Z,79709.97
2024-03-02T20:13:29.566Z,79729.78
2024-03-02T20:15:06.277Z,79698.09
2024-03-02T20:16:47.310Z,79702.06
2024-03-02T20:18:20.890Z,79698.09
2024-03-02T20:19:58.337Z,79749.56
2024-03-02T20:21:32.019Z,79749.56
2024-03-02T20:23:06.090Z,79704.03
2024-03-02T20:24:39.406Z,79745.59
2024-03-02T20:26:13.246Z,79706.03
2024-03-02T20:27:46.872Z,79694.16
2024-03-02T20:29:20.472Z,79694.16
2024-03-02T20:30:53.896Z,79686.25
2024-03-02T20:32:30.331Z,79694.16
2024-03-02T20:34:03.911Z,79704.03
2024-03-02T20:35:37.154Z,79684.25
2024-03-02T20:37:13.911Z,79644.69
2024-03-02T20:39:40.712Z,79670.41
2024-03-02T20:40:52.990Z,79769.34
2024-03-02T20:42:31.589Z,79733.72